sensor_id;sensor_type;location;lat;lon;timestamp;pressure;altitude;pressure_sealevel;temperature;humidity
46129;BME280;31860;45.186;5.790;2023-07-13T00:00:12;99084.19;;;25.90;100.00
46129;BME280;31860;45.186;5.790;2023-07-13T00:02:41;99075.94;;;25.93;100.00
46129;BME280;31860;45.186;5.790;2023-07-13T00:05:06;99071.34;;;25.95;100.00
46129;BME280;31860;45.186;5.790;2023-07-13T00:07:32;99078.44;;;25.96;100.00
46129;BME280;31860;45.186;5.790;2023-07-13T00:09:57;99077.31;;;25.86;100.00
46129;BME280;31860;45.186;5.790;2023-07-13T00:12:30;99079.88;;;25.88;100.00
46129;BME280;31860;45.186;5.790;2023-07-13T00:14:57;99078.25;;;25.85;100.00
46129;BME280;31860;45.186;5.790;2023-07-13T00:17:24;99076.66;;;25.83;100.00
46129;BME280;31860;45.186;5.790;2023-07-13T00:19:49;99071.19;;;25.84;100.00
46129;BME280;31860;45.186;5.790;2023-07-13T00:22:14;99071.09;;;25.86;100.00
46129;BME280;31860;45.186;5.790;2023-07-13T00:24:40;99079.00;;;25.87;100.00
46129;BME280;31860;45.186;5.790;2023-07-13T00:27:08;99088.78;;;25.88;100.00
46129;BME280;31860;45.186;5.790;2023-07-13T00:29:33;99092.31;;;25.89;100.00
46129;BME280;31860;45.186;5.790;2023-07-13T00:31:59;99094.59;;;25.95;100.00
46129;BME280;31860;45.186;5.790;2023-07-13T00:34:24;99090.84;;;25.97;100.00
46129;BME280;31860;45.186;5.790;2023-07-13T00:36:50;99091.63;;;25.99;100.00
46129;BME280;31860;45.186;5.790;2023-07-13T00:39:15;99093.16;;;26.03;100.00
46129;BME280;31860;45.186;5.790;2023-07-13T00:41:40;99097.53;;;26.04;100.00
46129;BME280;31860;45.186;5.790;2023-07-13T00:44:13;99105.50;;;26.06;100.00
46129;BME280;31860;45.186;5.790;2023-07-13T00:46:38;99111.91;;;26.03;100.00
46129;BME280;31860;45.186;5.790;2023-07-13T00:49:06;99126.84;;;26.07;100.00
46129;BME280;31860;45.186;5.790;2023-07-13T00:51:37;99127.63;;;26.09;100.00
46129;BME280;31860;45.186;5.790;2023-07-13T00:54:05;99122.44;;;26.06;100.00
46129;BME280;31860;45.186;5.790;2023-07-13T00:56:32;99119.56;;;26.09;100.00
46129;BME280;31860;45.186;5.790;2023-07-13T00:58:59;99113.47;;;26.07;100.00
46129;BME280;31860;45.186;5.790;2023-07-13T01:01:25;99112.38;;;26.10;100.00
46129;BME280;31860;45.186;5.790;2023-07-13T01:03:51;99114.00;;;26.12;100.00
46129;BME280;31860;45.186;5.790;2023-07-13T01:06:16;99125.69;;;26.11;100.00
46129;BME280;31860;45.186;5.790;2023-07-13T01:08:42;99121.00;;;26.15;100.00
46129;BME280;31860;45.186;5.790;2023-07-13T01:11:08;99113.91;;;26.14;100.00
46129;BME280;31860;45.186;5.790;2023-07-13T01:13:33;99115.81;;;26.12;100.00
46129;BME280;31860;45.186;5.790;2023-07-13T01:16:04;99121.19;;;26.12;100.00
46129;BME280;31860;45.186;5.790;2023-07-13T01:18:31;99125.78;;;26.10;100.00
46129;BME280;31860;45.186;5.790;2023-07-13T01:21:02;99127.63;;;26.09;100.00
46129;BME280;31860;45.186;5.790;2023-07-13T01:23:29;99108.94;;;26.08;100.00
46129;BME280;31860;45.186;5.790;2023-07-13T01:25:55;99105.50;;;26.06;100.00
46129;BME280;31860;45.186;5.790;2023-07-13T01:28:21;99103.09;;;26.01;100.00
46129;BME280;31860;45.186;5.790;2023-07-13T01:30:47;99102.13;;;26.02;100.00
46129;BME280;31860;45.186;5.790;2023-07-13T01:33:17;99104.81;;;26.02;100.00
46129;BME280;31860;45.186;5.790;2023-07-13T01:35:47;99106.16;;;25.95;100.00
46129;BME280;31860;45.186;5.790;2023-07-13T01:38:14;99102.16;;;25.88;100.00
46129;BME280;31860;45.186;5.790;2023-07-13T01:40:40;99114.28;;;25.80;100.00
46129;BME280;31860;45.186;5.790;2023-07-13T01:43:06;99119.66;;;25.80;100.00
46129;BME280;31860;45.186;5.790;2023-07-13T01:45:32;99114.28;;;25.80;100.00
46129;BME280;31860;45.186;5.790;2023-07-13T01:47:57;99115.38;;;25.77;100.00
46129;BME280;31860;45.186;5.790;2023-07-13T01:50:23;99124.25;;;25.78;100.00
46129;BME280;31860;45.186;5.790;2023-07-13T01:52:49;99115.38;;;25.77;100.00
46129;BME280;31860;45.186;5.790;2023-07-13T01:55:14;99107.34;;;25.77;100.00
46129;BME280;31860;45.186;5.790;2023-07-13T01:57:39;99104.00;;;25.74;100.00
46129;BME280;31860;45.186;5.790;2023-07-13T02:00:06;99111.94;;;25.75;100.00
46129;BME280;31860;45.186;5.790;2023-07-13T02:02:32;99103.13;;;25.73;100.00
46129;BME280;31860;45.186;5.790;2023-07-13T02:04:57;99102.25;;;25.73;100.00
46129;BME280;31860;45.186;5.790;2023-07-13T02:07:23;99113.25;;;25.68;100.00
46129;BME280;31860;45.186;5.790;2023-07-13T02:09:48;99115.16;;;25.66;100.00
46129;BME280;31860;45.186;5.790;2023-07-13T02:12:14;99108.31;;;25.62;100.00
46129;BME280;31860;45.186;5.790;2023-07-13T02:14:39;99119.94;;;25.61;100.00
46129;BME280;31860;45.186;5.790;2023-07-13T02:17:05;99114.91;;;25.57;100.00
46129;BME280;31860;45.186;5.790;2023-07-13T02:19:31;99116.50;;;25.59;100.00
46129;BME280;31860;45.186;5.790;2023-07-13T02:21:56;99108.84;;;25.53;100.00
46129;BME280;31860;45.186;5.790;2023-07-13T02:24:22;99109.91;;;25.51;100.00
46129;BME280;31860;45.186;5.790;2023-07-13T02:26:47;99110.84;;;25.50;100.00
46129;BME280;31860;45.186;5.790;2023-07-13T02:29:13;99112.75;;;25.48;100.00
46129;BME280;31860;45.186;5.790;2023-07-13T02:31:39;99111.81;;;25.49;100.00
46129;BME280;31860;45.186;5.790;2023-07-13T02:34:04;99113.91;;;25.44;100.00
46129;BME280;31860;45.186;5.790;2023-07-13T02:36:30;99118.41;;;25.43;100.00
46129;BME280;31860;45.186;5.790;2023-07-13T02:38:57;99116.78;;;25.41;100.00
46129;BME280;31860;45.186;5.790;2023-07-13T02:41:23;99115.84;;;25.42;100.00
46129;BME280;31860;45.186;5.790;2023-07-13T02:43:48;99119.47;;;25.41;100.00
46129;BME280;31860;45.186;5.790;2023-07-13T02:46:14;99124.91;;;25.39;100.00
46129;BME280;31860;45.186;5.790;2023-07-13T02:48:40;99111.59;;;25.38;100.00
46129;BME280;31860;45.186;5.790;2023-07-13T02:51:06;99115.50;;;25.32;100.00
46129;BME280;31860;45.186;5.790;2023-07-13T02:53:32;99115.56;;;25.30;100.00
46129;BME280;31860;45.186;5.790;2023-07-13T02:55:58;99114.81;;;25.28;100.00
46129;BME280;31860;45.186;5.790;2023-07-13T02:58:23;99115.78;;;25.27;100.00
46129;BME280;31860;45.186;5.790;2023-07-13T03:00:48;99120.56;;;25.22;100.00
46129;BME280;31860;45.186;5.790;2023-07-13T03:03:15;99114.44;;;25.20;100.00
46129;BME280;31860;45.186;5.790;2023-07-13T03:05:42;99116.25;;;25.20;100.00
46129;BME280;31860;45.186;5.790;2023-07-13T03:08:09;99114.44;;;25.20;100.00
46129;BME280;31860;45.186;5.790;2023-07-13T03:10:35;99118.06;;;25.19;100.00
46129;BME280;31860;45.186;5.790;2023-07-13T03:13:00;99125.03;;;25.22;100.00
46129;BME280;31860;45.186;5.790;2023-07-13T03:15:26;99132.97;;;25.23;100.00
46129;BME280;31860;45.186;5.790;2023-07-13T03:17:52;99132.97;;;25.23;100.00
46129;BME280;31860;45.186;5.790;2023-07-13T03:20:18;99131.25;;;25.22;100.00
46129;BME280;31860;45.186;5.790;2023-07-13T03:22:43;99142.31;;;25.16;100.00
46129;BME280;31860;45.186;5.790;2023-07-13T03:25:09;99134.44;;;25.13;100.00
46129;BME280;31860;45.186;5.790;2023-07-13T03:27:36;99136.47;;;25.10;100.00
46129;BME280;31860;45.186;5.790;2023-07-13T03:30:01;99142.94;;;25.06;100.00
46129;BME280;31860;45.186;5.790;2023-07-13T03:32:26;99141.44;;;25.02;100.00
46129;BME280;31860;45.186;5.790;2023-07-13T03:34:52;99146.16;;;24.97;100.00
46129;BME280;31860;45.186;5.790;2023-07-13T03:37:18;99150.94;;;24.92;100.00
46129;BME280;31860;45.186;5.790;2023-07-13T03:39:43;99147.56;;;24.88;100.00
46129;BME280;31860;45.186;5.790;2023-07-13T03:42:08;99154.16;;;24.83;100.00
46129;BME280;31860;45.186;5.790;2023-07-13T03:44:35;99162.06;;;24.84;100.00
46129;BME280;31860;45.186;5.790;2023-07-13T03:47:00;99164.06;;;24.81;100.00
46129;BME280;31860;45.186;5.790;2023-07-13T03:49:25;99164.16;;;24.79;100.00
46129;BME280;31860;45.186;5.790;2023-07-13T03:51:51;99167.75;;;24.78;100.00
46129;BME280;31860;45.186;5.790;2023-07-13T03:54:16;99166.13;;;24.76;100.00
46129;BME280;31860;45.186;5.790;2023-07-13T03:56:42;99172.75;;;24.69;100.00
46129;BME280;31860;45.186;5.790;2023-07-13T03:59:07;99166.53;;;24.68;100.00
46129;BME280;31860;45.186;5.790;2023-07-13T04:01:32;99169.56;;;24.62;100.00
46129;BME280;31860;45.186;5.790;2023-07-13T04:03:58;99171.28;;;24.63;100.00
46129;BME280;31860;45.186;5.790;2023-07-13T04:06:27;99169.81;;;24.58;100.00
46129;BME280;31860;45.186;5.790;2023-07-13T04:08:55;99171.72;;;24.56;100.00
46129;BME280;31860;45.186;5.790;2023-07-13T04:11:24;99163.91;;;24.53;100.00
46129;BME280;31860;45.186;5.790;2023-07-13T04:13:50;99170.16;;;24.52;100.00
46129;BME280;31860;45.186;5.790;2023-07-13T04:16:16;99171.03;;;24.52;100.00
46129;BME280;31860;45.186;5.790;2023-07-13T04:18:43;99185.41;;;24.50;100.00
46129;BME280;31860;45.186;5.790;2023-07-13T04:21:09;99190.00;;;24.48;100.00
46129;BME280;31860;45.186;5.790;2023-07-13T04:23:35;99186.72;;;24.42;100.00
46129;BME280;31860;45.186;5.790;2023-07-13T04:26:01;99189.63;;;24.38;100.00
46129;BME280;31860;45.186;5.790;2023-07-13T04:28:26;99198.44;;;24.40;100.00
46129;BME280;31860;45.186;5.790;2023-07-13T04:30:52;99192.59;;;24.33;100.00
46129;BME280;31860;45.186;5.790;2023-07-13T04:33:18;99196.91;;;24.36;100.00
46129;BME280;31860;45.186;5.790;2023-07-13T04:35:48;99199.63;;;24.34;100.00
46129;BME280;31860;45.186;5.790;2023-07-13T04:38:14;99202.31;;;24.34;100.00
46129;BME280;31860;45.186;5.790;2023-07-13T04:40:44;99202.16;;;24.37;100.00
46129;BME280;31860;45.186;5.790;2023-07-13T04:43:10;99209.13;;;24.40;100.00
46129;BME280;31860;45.186;5.790;2023-07-13T04:45:36;99207.50;;;24.37;100.00
46129;BME280;31860;45.186;5.790;2023-07-13T04:48:01;99214.22;;;24.44;100.00
46129;BME280;31860;45.186;5.790;2023-07-13T04:50:26;99208.63;;;24.49;100.00
46129;BME280;31860;45.186;5.790;2023-07-13T04:52:52;99216.44;;;24.52;100.00
46129;BME280;31860;45.186;5.790;2023-07-13T04:55:18;99216.34;;;24.54;100.00
46129;BME280;31860;45.186;5.790;2023-07-13T04:57:44;99218.94;;;24.55;100.00
46129;BME280;31860;45.186;5.790;2023-07-13T05:00:10;99222.94;;;24.64;100.00
46129;BME280;31860;45.186;5.790;2023-07-13T05:02:38;99222.63;;;24.68;100.00
46129;BME280;31860;45.186;5.790;2023-07-13T05:05:04;99218.06;;;24.72;100.00
46129;BME280;31860;45.186;5.790;2023-07-13T05:07:29;99225.25;;;24.70;100.00
46129;BME280;31860;45.186;5.790;2023-07-13T05:09:55;99226.19;;;24.69;100.00
46129;BME280;31860;45.186;5.790;2023-07-13T05:12:20;99243.09;;;24.69;100.00
46129;BME280;31860;45.186;5.790;2023-07-13T05:14:46;99239.44;;;24.70;100.00
46129;BME280;31860;45.186;5.790;2023-07-13T05:17:11;99250.34;;;24.67;100.00
46129;BME280;31860;45.186;5.790;2023-07-13T05:19:37;99252.13;;;24.67;100.00
46129;BME280;31860;45.186;5.790;2023-07-13T05:22:02;99258.34;;;24.67;100.00
46129;BME280;31860;45.186;5.790;2023-07-13T05:24:29;99253.00;;;24.67;100.00
46129;BME280;31860;45.186;5.790;2023-07-13T05:26:55;99261.97;;;24.66;100.00
46129;BME280;31860;45.186;5.790;2023-07-13T05:29:21;99258.44;;;24.66;100.00
46129;BME280;31860;45.186;5.790;2023-07-13T05:31:47;99259.03;;;24.71;100.00
46129;BME280;31860;45.186;5.790;2023-07-13T05:34:12;99264.25;;;24.74;100.00
46129;BME280;31860;45.186;5.790;2023-07-13T05:36:37;99268.81;;;24.72;100.00
46129;BME280;31860;45.186;5.790;2023-07-13T05:39:03;99271.53;;;24.70;100.00
46129;BME280;31860;45.186;5.790;2023-07-13T05:41:29;99276.84;;;24.72;100.00
46129;BME280;31860;45.186;5.790;2023-07-13T05:43:54;99277.69;;;24.72;100.00
46129;BME280;31860;45.186;5.790;2023-07-13T05:46:19;99279.03;;;24.64;100.00
46129;BME280;31860;45.186;5.790;2023-07-13T05:48:45;99277.16;;;24.66;100.00
46129;BME280;31860;45.186;5.790;2023-07-13T05:51:10;99280.34;;;24.57;100.00
46129;BME280;31860;45.186;5.790;2023-07-13T05:53:36;99291.16;;;24.54;100.00
46129;BME280;31860;45.186;5.790;2023-07-13T05:56:01;99297.13;;;24.43;100.00
46129;BME280;31860;45.186;5.790;2023-07-13T05:58:27;99288.91;;;24.46;100.00
46129;BME280;31860;45.186;5.790;2023-07-13T06:01:04;99300.97;;;24.37;100.00
46129;BME280;31860;45.186;5.790;2023-07-13T06:03:30;99300.97;;;24.37;100.00
46129;BME280;31860;45.186;5.790;2023-07-13T06:05:56;99303.19;;;24.29;100.00
46129;BME280;31860;45.186;5.790;2023-07-13T06:08:22;99306.09;;;24.25;100.00
46129;BME280;31860;45.186;5.790;2023-07-13T06:10:48;99308.84;;;24.23;100.00
46129;BME280;31860;45.186;5.790;2023-07-13T06:13:13;99305.09;;;24.27;100.00
46129;BME280;31860;45.186;5.790;2023-07-13T06:15:38;99319.31;;;24.28;100.00
46129;BME280;31860;45.186;5.790;2023-07-13T06:18:04;99323.31;;;24.19;100.00
46129;BME280;31860;45.186;5.790;2023-07-13T06:20:29;99327.88;;;24.17;100.00
46129;BME280;31860;45.186;5.790;2023-07-13T06:22:55;99333.56;;;24.11;100.00
46129;BME280;31860;45.186;5.790;2023-07-13T06:25:21;99329.94;;;24.12;100.00
46129;BME280;31860;45.186;5.790;2023-07-13T06:27:46;99335.34;;;24.11;100.00
46129;BME280;31860;45.186;5.790;2023-07-13T06:30:12;99332.59;;;23.95;100.00
46129;BME280;31860;45.186;5.790;2023-07-13T06:32:37;99321.03;;;23.95;100.00
46129;BME280;31860;45.186;5.790;2023-07-13T06:35:03;99330.78;;;23.96;100.00
46129;BME280;31860;45.186;5.790;2023-07-13T06:37:29;99328.97;;;23.96;100.00
46129;BME280;31860;45.186;5.790;2023-07-13T06:39:54;99330.53;;;24.00;100.00
46129;BME280;31860;45.186;5.790;2023-07-13T06:42:19;99332.34;;;24.00;100.00
46129;BME280;31860;45.186;5.790;2023-07-13T06:44:45;99334.16;;;23.99;100.00
46129;BME280;31860;45.186;5.790;2023-07-13T06:47:10;99333.28;;;23.99;100.00
46129;BME280;31860;45.186;5.790;2023-07-13T06:49:36;99344.75;;;24.01;100.00
46129;BME280;31860;45.186;5.790;2023-07-13T06:52:02;99343.50;;;24.08;100.00
46129;BME280;31860;45.186;5.790;2023-07-13T06:54:27;99338.91;;;24.11;100.00
46129;BME280;31860;45.186;5.790;2023-07-13T06:56:52;99345.78;;;24.15;100.00
46129;BME280;31860;45.186;5.790;2023-07-13T06:59:19;99349.22;;;24.17;100.00
46129;BME280;31860;45.186;5.790;2023-07-13T07:01:44;99347.44;;;24.18;100.00
46129;BME280;31860;45.186;5.790;2023-07-13T07:04:09;99352.69;;;24.19;100.00
46129;BME280;31860;45.186;5.790;2023-07-13T07:06:35;99350.78;;;24.21;100.00
46129;BME280;31860;45.186;5.790;2023-07-13T07:09:00;99352.53;;;24.22;100.00
46129;BME280;31860;45.186;5.790;2023-07-13T07:11:26;99355.72;;;24.29;100.00
46129;BME280;31860;45.186;5.790;2023-07-13T07:13:52;99351.25;;;24.29;100.00
46129;BME280;31860;45.186;5.790;2023-07-13T07:16:19;99358.66;;;24.24;100.00
46129;BME280;31860;45.186;5.790;2023-07-13T07:18:45;99353.38;;;24.23;100.00
46129;BME280;31860;45.186;5.790;2023-07-13T07:21:11;99358.41;;;24.29;100.00
46129;BME280;31860;45.186;5.790;2023-07-13T07:23:36;99359.97;;;24.33;100.00
46129;BME280;31860;45.186;5.790;2023-07-13T07:26:02;99351.41;;;24.43;100.00
46129;BME280;31860;45.186;5.790;2023-07-13T07:28:28;99350.34;;;24.46;100.00
46129;BME280;31860;45.186;5.790;2023-07-13T07:30:55;99345.88;;;24.47;100.00
46129;BME280;31860;45.186;5.790;2023-07-13T07:33:21;99352.78;;;24.51;100.00
46129;BME280;31860;45.186;5.790;2023-07-13T07:35:47;99358.13;;;24.51;100.00
46129;BME280;31860;45.186;5.790;2023-07-13T07:38:12;99360.94;;;24.48;100.00
46129;BME280;31860;45.186;5.790;2023-07-13T07:40:39;99354.59;;;24.50;100.00
46129;BME280;31860;45.186;5.790;2023-07-13T07:43:06;99367.03;;;24.51;100.00
46129;BME280;31860;45.186;5.790;2023-07-13T07:45:31;99365.03;;;24.55;100.00
46129;BME280;31860;45.186;5.790;2023-07-13T07:47:57;99373.66;;;24.60;100.00
46129;BME280;31860;45.186;5.790;2023-07-13T07:50:27;99364.53;;;24.64;100.00
46129;BME280;31860;45.186;5.790;2023-07-13T07:52:53;99371.28;;;24.71;100.00
46129;BME280;31860;45.186;5.790;2023-07-13T07:55:18;99361.94;;;24.79;100.00
46129;BME280;31860;45.186;5.790;2023-07-13T07:57:44;99374.00;;;24.86;100.00
46129;BME280;31860;45.186;5.790;2023-07-13T08:00:10;99377.56;;;24.87;100.00
46129;BME280;31860;45.186;5.790;2023-07-13T08:02:35;99367.63;;;24.73;100.00
46129;BME280;31860;45.186;5.790;2023-07-13T08:05:00;99362.53;;;24.84;100.00
46129;BME280;31860;45.186;5.790;2023-07-13T08:07:26;99368.66;;;24.86;100.00
46129;BME280;31860;45.186;5.790;2023-07-13T08:09:52;99359.34;;;24.93;100.00
46129;BME280;31860;45.186;5.790;2023-07-13T08:12:18;99360.81;;;24.99;100.00
46129;BME280;31860;45.186;5.790;2023-07-13T08:14:43;99362.97;;;25.08;100.00
46129;BME280;31860;45.186;5.790;2023-07-13T08:17:09;99355.38;;;25.16;100.00
46129;BME280;31860;45.186;5.790;2023-07-13T08:19:34;99352.81;;;25.30;100.00
46129;BME280;31860;45.186;5.790;2023-07-13T08:22:00;99350.41;;;25.41;100.00
46129;BME280;31860;45.186;5.790;2023-07-13T08:24:25;99349.41;;;25.58;100.00
46129;BME280;31860;45.186;5.790;2023-07-13T08:26:51;99351.97;;;25.75;100.00
46129;BME280;31860;45.186;5.790;2023-07-13T08:29:17;99354.97;;;25.84;100.00
46129;BME280;31860;45.186;5.790;2023-07-13T08:31:42;99355.28;;;25.94;98.38
46129;BME280;31860;45.186;5.790;2023-07-13T08:34:08;99350.19;;;26.05;97.35
46129;BME280;31860;45.186;5.790;2023-07-13T08:36:33;99340.63;;;26.15;96.30
46129;BME280;31860;45.186;5.790;2023-07-13T08:38:59;99353.16;;;26.28;94.42
46129;BME280;31860;45.186;5.790;2023-07-13T08:41:24;99351.50;;;26.42;93.04
46129;BME280;31860;45.186;5.790;2023-07-13T08:43:54;99350.72;;;26.54;90.62
46129;BME280;31860;45.186;5.790;2023-07-13T08:46:26;99350.78;;;26.66;87.09
46129;BME280;31860;45.186;5.790;2023-07-13T08:48:58;99342.88;;;26.79;85.38
46129;BME280;31860;45.186;5.790;2023-07-13T08:51:31;99348.44;;;26.90;85.37
46129;BME280;31860;45.186;5.790;2023-07-13T08:54:02;99334.25;;;27.02;79.36
46129;BME280;31860;45.186;5.790;2023-07-13T08:56:30;99342.44;;;27.13;83.25
46129;BME280;31860;45.186;5.790;2023-07-13T08:58:58;99347.22;;;27.22;82.34
46129;BME280;31860;45.186;5.790;2023-07-13T09:04:36;99346.28;;;27.50;80.62
46129;BME280;31860;45.186;5.790;2023-07-13T09:07:29;99335.38;;;27.65;79.51
46129;BME280;31860;45.186;5.790;2023-07-13T09:10:12;99346.56;;;27.72;78.03
46129;BME280;31860;45.186;5.790;2023-07-13T09:15:30;99339.19;;;27.75;76.35
46129;BME280;31860;45.186;5.790;2023-07-13T09:18:10;99333.28;;;27.83;77.87
46129;BME280;31860;45.186;5.790;2023-07-13T09:20:48;99333.34;;;27.95;77.13
46129;BME280;31860;45.186;5.790;2023-07-13T09:23:17;99339.59;;;28.08;78.83
46129;BME280;31860;45.186;5.790;2023-07-13T09:25:47;99343.38;;;28.19;79.06
46129;BME280;31860;45.186;5.790;2023-07-13T09:28:33;99344.44;;;28.29;75.84
46129;BME280;31860;45.186;5.790;2023-07-13T09:31:09;99342.50;;;28.31;76.72
46129;BME280;31860;45.186;5.790;2023-07-13T09:33:38;99346.69;;;28.35;77.88
46129;BME280;31860;45.186;5.790;2023-07-13T09:39:04;99336.28;;;28.43;73.82
46129;BME280;31860;45.186;5.790;2023-07-13T09:44:33;99349.72;;;28.43;74.04
46129;BME280;31860;45.186;5.790;2023-07-13T09:47:00;99351.00;;;28.50;74.60
46129;BME280;31860;45.186;5.790;2023-07-13T09:49:34;99350.81;;;28.53;74.78
46129;BME280;31860;45.186;5.790;2023-07-13T09:52:07;99358.66;;;28.56;73.85
46129;BME280;31860;45.186;5.790;2023-07-13T09:54:36;99360.28;;;28.58;68.35
46129;BME280;31860;45.186;5.790;2023-07-13T09:57:03;99365.22;;;28.64;73.86
46129;BME280;31860;45.186;5.790;2023-07-13T09:59:41;99352.19;;;28.71;75.43
46129;BME280;31860;45.186;5.790;2023-07-13T10:04:59;99355.41;;;28.76;72.16
46129;BME280;31860;45.186;5.790;2023-07-13T10:07:25;99355.28;;;28.77;73.00
46129;BME280;31860;45.186;5.790;2023-07-13T10:09:57;99352.28;;;28.82;70.80
46129;BME280;31860;45.186;5.790;2023-07-13T10:12:27;99357.44;;;28.85;70.35
46129;BME280;31860;45.186;5.790;2023-07-13T10:14:55;99339.34;;;28.87;69.59
46129;BME280;31860;45.186;5.790;2023-07-13T10:17:29;99355.41;;;28.88;69.57
46129;BME280;31860;45.186;5.790;2023-07-13T10:19:59;99352.06;;;28.85;69.43
46129;BME280;31860;45.186;5.790;2023-07-13T10:24:59;99350.03;;;28.88;68.50
46129;BME280;31860;45.186;5.790;2023-07-13T10:27:35;99358.75;;;28.92;67.13
46129;BME280;31860;45.186;5.790;2023-07-13T10:30:09;99349.56;;;28.94;69.01
46129;BME280;31860;45.186;5.790;2023-07-13T10:32:37;99357.19;;;29.00;69.03
46129;BME280;31860;45.186;5.790;2023-07-13T10:35:03;99350.63;;;29.05;68.57
46129;BME280;31860;45.186;5.790;2023-07-13T10:37:57;99344.16;;;29.07;67.21
46129;BME280;31860;45.186;5.790;2023-07-13T10:40:27;99351.13;;;29.10;67.77
46129;BME280;31860;45.186;5.790;2023-07-13T10:42:57;99338.44;;;29.12;67.61
46129;BME280;31860;45.186;5.790;2023-07-13T10:45:24;99340.09;;;29.14;67.50
46129;BME280;31860;45.186;5.790;2023-07-13T10:47:53;99339.09;;;29.15;66.58
46129;BME280;31860;45.186;5.790;2023-07-13T10:50:26;99340.72;;;29.18;65.34
46129;BME280;31860;45.186;5.790;2023-07-13T10:52:54;99342.34;;;29.20;66.52
46129;BME280;31860;45.186;5.790;2023-07-13T10:58:19;99338.66;;;29.21;65.18
46129;BME280;31860;45.186;5.790;2023-07-13T11:00:53;99334.75;;;29.25;66.98
46129;BME280;31860;45.186;5.790;2023-07-13T11:03:22;99330.00;;;29.29;65.48
46129;BME280;31860;45.186;5.790;2023-07-13T11:05:50;99314.59;;;29.31;64.77
46129;BME280;31860;45.186;5.790;2023-07-13T11:10:50;99311.78;;;29.32;62.12
46129;BME280;31860;45.186;5.790;2023-07-13T11:16:37;99311.41;;;29.26;57.82
46129;BME280;31860;45.186;5.790;2023-07-13T11:21:32;99309.47;;;29.28;61.41
46129;BME280;31860;45.186;5.790;2023-07-13T11:26:40;99314.03;;;29.15;61.47
46129;BME280;31860;45.186;5.790;2023-07-13T11:29:36;99302.69;;;29.10;57.85
46129;BME280;31860;45.186;5.790;2023-07-13T11:32:22;99310.13;;;29.06;59.49
46129;BME280;31860;45.186;5.790;2023-07-13T11:34:49;99304.56;;;29.09;61.10
46129;BME280;31860;45.186;5.790;2023-07-13T11:37:16;99289.25;;;29.10;61.23
46129;BME280;31860;45.186;5.790;2023-07-13T11:39:44;99285.59;;;29.11;60.31
46129;BME280;31860;45.186;5.790;2023-07-13T11:42:13;99281.06;;;29.11;60.26
46129;BME280;31860;45.186;5.790;2023-07-13T11:44:49;99276.66;;;29.10;60.01
46129;BME280;31860;45.186;5.790;2023-07-13T11:47:20;99277.72;;;29.08;60.84
46129;BME280;31860;45.186;5.790;2023-07-13T11:49:53;99276.25;;;29.04;60.56
46129;BME280;31860;45.186;5.790;2023-07-13T11:52:32;99273.44;;;29.05;60.87
46129;BME280;31860;45.186;5.790;2023-07-13T11:55:00;99276.34;;;29.02;60.36
46129;BME280;31860;45.186;5.790;2023-07-13T11:57:32;99270.63;;;29.07;60.37
46129;BME280;31860;45.186;5.790;2023-07-13T12:00:00;99268.69;;;29.09;60.60
46129;BME280;31860;45.186;5.790;2023-07-13T12:02:33;99261.38;;;29.11;60.13
46129;BME280;31860;45.186;5.790;2023-07-13T12:05:02;99270.09;;;29.14;60.98
46129;BME280;31860;45.186;5.790;2023-07-13T12:07:31;99266.53;;;29.14;58.87
46129;BME280;31860;45.186;5.790;2023-07-13T12:10:02;99262.03;;;29.14;58.90
46129;BME280;31860;45.186;5.790;2023-07-13T12:12:28;99264.94;;;29.11;57.72
46129;BME280;31860;45.186;5.790;2023-07-13T12:14:55;99261.38;;;29.11;57.93
46129;BME280;31860;45.186;5.790;2023-07-13T12:17:25;99258.81;;;29.09;58.13
46129;BME280;31860;45.186;5.790;2023-07-13T12:19:52;99252.31;;;29.12;58.60
46129;BME280;31860;45.186;5.790;2023-07-13T12:22:19;99243.41;;;29.11;57.21
46129;BME280;31860;45.186;5.790;2023-07-13T12:24:47;99241.38;;;29.15;57.26
46129;BME280;31860;45.186;5.790;2023-07-13T12:27:27;99247.50;;;29.17;56.92
46129;BME280;31860;45.186;5.790;2023-07-13T12:30:20;99234.88;;;29.17;54.28
46129;BME280;31860;45.186;5.790;2023-07-13T12:33:05;99225.84;;;29.18;55.67
46129;BME280;31860;45.186;5.790;2023-07-13T12:35:42;99230.97;;;29.21;57.38
46129;BME280;31860;45.186;5.790;2023-07-13T12:38:11;99238.22;;;29.21;57.05
46129;BME280;31860;45.186;5.790;2023-07-13T12:40:37;99241.00;;;29.19;56.58
46129;BME280;31860;45.186;5.790;2023-07-13T12:43:03;99236.38;;;29.21;55.87
46129;BME280;31860;45.186;5.790;2023-07-13T12:45:31;99241.53;;;29.24;55.89
46129;BME280;31860;45.186;5.790;2023-07-13T12:48:03;99237.84;;;29.25;56.15
46129;BME280;31860;45.186;5.790;2023-07-13T12:50:37;99234.19;;;29.26;57.18
46129;BME280;31860;45.186;5.790;2023-07-13T12:53:05;99227.97;;;29.26;56.08
46129;BME280;31860;45.186;5.790;2023-07-13T12:55:41;99234.09;;;29.28;55.62
46129;BME280;31860;45.186;5.790;2023-07-13T12:58:16;99221.59;;;29.27;53.51
46129;BME280;31860;45.186;5.790;2023-07-13T13:00:48;99215.25;;;29.28;54.05
46129;BME280;31860;45.186;5.790;2023-07-13T13:08:29;99221.50;;;29.28;52.99
46129;BME280;31860;45.186;5.790;2023-07-13T13:10:55;99224.06;;;29.30;53.10
46129;BME280;31860;45.186;5.790;2023-07-13T13:13:21;99224.06;;;29.30;52.88
46129;BME280;31860;45.186;5.790;2023-07-13T13:15:47;99223.06;;;29.31;53.16
46129;BME280;31860;45.186;5.790;2023-07-13T13:18:23;99215.00;;;29.31;52.05
46129;BME280;31860;45.186;5.790;2023-07-13T13:20:50;99213.28;;;29.30;52.39
46129;BME280;31860;45.186;5.790;2023-07-13T13:23:18;99218.81;;;29.28;51.89
46129;BME280;31860;45.186;5.790;2023-07-13T13:25:45;99214.38;;;29.27;51.67
46129;BME280;31860;45.186;5.790;2023-07-13T13:28:15;99217.06;;;29.27;50.85
46129;BME280;31860;45.186;5.790;2023-07-13T13:30:42;99213.75;;;29.24;50.80